ATH weather

Eleftherios Venizelos International Airport
Athens, Attica, Greece

Public forecast

Using degrees Celsius for public forecast. Weather courtesy of forecast.io.

METAR (pilot weather report)

Retrieved 2017/12/15 16:20 UTC (0 seconds ago):

LGAV 151620Z 22007KT CAVOK 12/07 Q1015 NOSIG

TAF (pilot weather forecast)

Retrieved 2017/12/15 12:12 UTC (4 hours ago):

TAF TAF LGAV 151100Z 1512/1612 21010KT 9999 FEW025 BECMG 1606/1608 22020KT SCT020 SCT070